Clayton le Moors, United Kingdom
Current Conditions -  °F | °C
As of 7:50 AM on Monday 24 Nov 2014 (Local Time) from EGCC Reporting Station
Few Clouds Few Clouds  
Wind Chill: 32°   Ceiling: Unl
Heat Index: 36°   Visibility: 6mi
Dew Point: 34°   Wind: 5mph
Humidity: 93%   Direction: 200°SSW
Pressure: 30.24"   Gusts: NA
Location:  53.77°N, 2.38°W
Report Text: EGCC 240750Z 20004KT 9999 FEW023 02/01 Q1024 NOSIG
Loading
Personal Weather Stations






























Interactive Weather Map New forecast layout! Learn more

10-Day Weather Forecast

Advertisements
Track Severe Weather on mobile